sensor_id;sensor_type;location;lat;lon;timestamp;P1;durP1;ratioP1;P2;durP2;ratioP2
35245;SDS011;21379;50.962;6.960;2022-10-31T00:02:20;16.92;;;6.13;;
35245;SDS011;21379;50.962;6.960;2022-10-31T00:04:47;13.05;;;5.90;;
35245;SDS011;21379;50.962;6.960;2022-10-31T00:07:15;14.18;;;5.50;;
35245;SDS011;21379;50.962;6.960;2022-10-31T00:09:42;16.00;;;6.05;;
35245;SDS011;21379;50.962;6.960;2022-10-31T00:12:09;9.68;;;4.75;;
35245;SDS011;21379;50.962;6.960;2022-10-31T00:14:36;15.25;;;6.13;;
35245;SDS011;21379;50.962;6.960;2022-10-31T00:17:03;18.63;;;5.43;;
35245;SDS011;21379;50.962;6.960;2022-10-31T00:19:30;16.25;;;5.72;;
35245;SDS011;21379;50.962;6.960;2022-10-31T00:21:56;11.70;;;5.07;;
35245;SDS011;21379;50.962;6.960;2022-10-31T00:24:25;12.48;;;5.05;;
35245;SDS011;21379;50.962;6.960;2022-10-31T00:26:52;10.40;;;5.38;;
35245;SDS011;21379;50.962;6.960;2022-10-31T00:29:18;14.48;;;5.47;;
35245;SDS011;21379;50.962;6.960;2022-10-31T00:31:45;12.93;;;4.63;;
35245;SDS011;21379;50.962;6.960;2022-10-31T00:34:12;13.57;;;4.60;;
35245;SDS011;21379;50.962;6.960;2022-10-31T00:36:39;10.73;;;4.93;;
35245;SDS011;21379;50.962;6.960;2022-10-31T00:39:06;10.07;;;5.03;;
35245;SDS011;21379;50.962;6.960;2022-10-31T00:41:34;25.60;;;6.35;;
35245;SDS011;21379;50.962;6.960;2022-10-31T00:44:01;10.23;;;4.80;;
35245;SDS011;21379;50.962;6.960;2022-10-31T00:46:28;11.90;;;4.43;;
35245;SDS011;21379;50.962;6.960;2022-10-31T00:48:55;11.30;;;5.07;;
35245;SDS011;21379;50.962;6.960;2022-10-31T00:51:21;13.05;;;4.60;;
35245;SDS011;21379;50.962;6.960;2022-10-31T00:53:48;9.57;;;5.22;;
35245;SDS011;21379;50.962;6.960;2022-10-31T00:56:15;15.00;;;5.40;;
35245;SDS011;21379;50.962;6.960;2022-10-31T00:58:43;24.92;;;5.20;;
35245;SDS011;21379;50.962;6.960;2022-10-31T01:01:10;17.92;;;5.07;;
35245;SDS011;21379;50.962;6.960;2022-10-31T01:03:37;12.40;;;5.32;;
35245;SDS011;21379;50.962;6.960;2022-10-31T01:06:05;12.38;;;5.13;;
35245;SDS011;21379;50.962;6.960;2022-10-31T01:08:34;14.10;;;4.65;;
35245;SDS011;21379;50.962;6.960;2022-10-31T01:11:03;13.15;;;4.95;;
35245;SDS011;21379;50.962;6.960;2022-10-31T01:13:32;8.18;;;4.22;;
35245;SDS011;21379;50.962;6.960;2022-10-31T01:16:00;10.55;;;5.00;;
35245;SDS011;21379;50.962;6.960;2022-10-31T01:18:28;12.38;;;5.13;;
35245;SDS011;21379;50.962;6.960;2022-10-31T01:21:02;17.27;;;5.05;;
35245;SDS011;21379;50.962;6.960;2022-10-31T01:23:30;13.25;;;4.63;;
35245;SDS011;21379;50.962;6.960;2022-10-31T01:25:59;10.60;;;5.57;;
35245;SDS011;21379;50.962;6.960;2022-10-31T01:28:26;13.18;;;4.90;;
35245;SDS011;21379;50.962;6.960;2022-10-31T01:30:53;13.98;;;5.20;;
35245;SDS011;21379;50.962;6.960;2022-10-31T01:33:21;12.20;;;5.53;;
35245;SDS011;21379;50.962;6.960;2022-10-31T01:35:48;10.80;;;5.05;;
35245;SDS011;21379;50.962;6.960;2022-10-31T01:38:15;12.90;;;4.85;;
35245;SDS011;21379;50.962;6.960;2022-10-31T01:40:42;9.02;;;4.43;;
35245;SDS011;21379;50.962;6.960;2022-10-31T01:43:10;13.57;;;4.95;;
35245;SDS011;21379;50.962;6.960;2022-10-31T01:45:39;11.65;;;4.95;;
35245;SDS011;21379;50.962;6.960;2022-10-31T01:48:08;16.70;;;5.15;;
35245;SDS011;21379;50.962;6.960;2022-10-31T01:50:40;9.48;;;4.78;;
35245;SDS011;21379;50.962;6.960;2022-10-31T01:53:11;11.82;;;4.22;;
35245;SDS011;21379;50.962;6.960;2022-10-31T01:55:39;13.52;;;4.78;;
35245;SDS011;21379;50.962;6.960;2022-10-31T01:58:09;12.38;;;5.20;;
35245;SDS011;21379;50.962;6.960;2022-10-31T02:00:39;12.52;;;5.13;;
35245;SDS011;21379;50.962;6.960;2022-10-31T02:03:09;16.55;;;5.10;;
35245;SDS011;21379;50.962;6.960;2022-10-31T02:05:36;13.43;;;4.57;;
35245;SDS011;21379;50.962;6.960;2022-10-31T02:08:06;8.13;;;4.25;;
35245;SDS011;21379;50.962;6.960;2022-10-31T02:10:37;14.05;;;4.82;;
35245;SDS011;21379;50.962;6.960;2022-10-31T02:13:05;12.75;;;5.18;;
35245;SDS011;21379;50.962;6.960;2022-10-31T02:15:33;17.92;;;6.85;;
35245;SDS011;21379;50.962;6.960;2022-10-31T02:18:02;13.35;;;5.18;;
35245;SDS011;21379;50.962;6.960;2022-10-31T02:20:31;9.32;;;5.07;;
35245;SDS011;21379;50.962;6.960;2022-10-31T02:23:13;20.58;;;5.60;;
35245;SDS011;21379;50.962;6.960;2022-10-31T02:26:07;16.05;;;4.97;;
35245;SDS011;21379;50.962;6.960;2022-10-31T02:28:54;16.52;;;5.10;;
35245;SDS011;21379;50.962;6.960;2022-10-31T02:31:39;13.95;;;4.90;;
35245;SDS011;21379;50.962;6.960;2022-10-31T02:34:11;18.08;;;5.32;;
35245;SDS011;21379;50.962;6.960;2022-10-31T02:36:45;11.23;;;5.28;;
35245;SDS011;21379;50.962;6.960;2022-10-31T02:39:18;14.57;;;6.35;;
35245;SDS011;21379;50.962;6.960;2022-10-31T02:41:51;9.13;;;5.05;;
35245;SDS011;21379;50.962;6.960;2022-10-31T02:44:27;10.95;;;5.40;;
35245;SDS011;21379;50.962;6.960;2022-10-31T02:47:01;12.57;;;5.68;;
35245;SDS011;21379;50.962;6.960;2022-10-31T02:49:35;10.40;;;4.43;;
35245;SDS011;21379;50.962;6.960;2022-10-31T02:52:13;11.52;;;5.47;;
35245;SDS011;21379;50.962;6.960;2022-10-31T02:54:42;10.00;;;4.90;;
35245;SDS011;21379;50.962;6.960;2022-10-31T02:57:10;9.57;;;4.82;;
35245;SDS011;21379;50.962;6.960;2022-10-31T02:59:39;9.23;;;4.70;;
35245;SDS011;21379;50.962;6.960;2022-10-31T03:02:20;11.68;;;5.22;;
35245;SDS011;21379;50.962;6.960;2022-10-31T03:05:03;15.35;;;5.00;;
35245;SDS011;21379;50.962;6.960;2022-10-31T03:07:56;10.13;;;4.45;;
35245;SDS011;21379;50.962;6.960;2022-10-31T03:10:30;11.70;;;4.45;;
35245;SDS011;21379;50.962;6.960;2022-10-31T03:13:06;9.05;;;4.97;;
35245;SDS011;21379;50.962;6.960;2022-10-31T03:15:37;16.77;;;4.40;;
35245;SDS011;21379;50.962;6.960;2022-10-31T03:18:08;8.85;;;4.43;;
35245;SDS011;21379;50.962;6.960;2022-10-31T03:20:38;9.77;;;4.63;;
35245;SDS011;21379;50.962;6.960;2022-10-31T03:23:08;11.00;;;4.57;;
35245;SDS011;21379;50.962;6.960;2022-10-31T03:25:38;10.05;;;4.32;;
35245;SDS011;21379;50.962;6.960;2022-10-31T03:28:06;11.05;;;5.07;;
35245;SDS011;21379;50.962;6.960;2022-10-31T03:30:35;9.68;;;4.78;;
35245;SDS011;21379;50.962;6.960;2022-10-31T03:33:06;14.30;;;4.57;;
35245;SDS011;21379;50.962;6.960;2022-10-31T03:35:39;10.85;;;4.20;;
35245;SDS011;21379;50.962;6.960;2022-10-31T03:38:08;9.13;;;4.22;;
35245;SDS011;21379;50.962;6.960;2022-10-31T03:40:36;13.18;;;3.50;;
35245;SDS011;21379;50.962;6.960;2022-10-31T03:43:07;12.27;;;4.78;;
35245;SDS011;21379;50.962;6.960;2022-10-31T03:45:41;10.80;;;5.03;;
35245;SDS011;21379;50.962;6.960;2022-10-31T03:48:11;8.23;;;4.35;;
35245;SDS011;21379;50.962;6.960;2022-10-31T03:50:40;10.85;;;3.95;;
35245;SDS011;21379;50.962;6.960;2022-10-31T03:53:14;12.60;;;4.93;;
35245;SDS011;21379;50.962;6.960;2022-10-31T03:55:47;16.60;;;5.18;;
35245;SDS011;21379;50.962;6.960;2022-10-31T03:58:19;10.00;;;5.35;;
35245;SDS011;21379;50.962;6.960;2022-10-31T04:00:50;10.13;;;4.38;;
35245;SDS011;21379;50.962;6.960;2022-10-31T04:03:22;15.32;;;5.68;;
35245;SDS011;21379;50.962;6.960;2022-10-31T04:05:52;9.50;;;4.93;;
35245;SDS011;21379;50.962;6.960;2022-10-31T04:08:22;8.25;;;4.20;;
35245;SDS011;21379;50.962;6.960;2022-10-31T04:10:51;12.70;;;5.70;;
35245;SDS011;21379;50.962;6.960;2022-10-31T04:13:21;11.10;;;5.05;;
35245;SDS011;21379;50.962;6.960;2022-10-31T04:15:51;12.15;;;4.82;;
35245;SDS011;21379;50.962;6.960;2022-10-31T04:18:21;11.13;;;4.95;;
35245;SDS011;21379;50.962;6.960;2022-10-31T04:20:49;15.73;;;5.55;;
35245;SDS011;21379;50.962;6.960;2022-10-31T04:23:25;9.88;;;4.63;;
35245;SDS011;21379;50.962;6.960;2022-10-31T04:25:52;12.20;;;4.90;;
35245;SDS011;21379;50.962;6.960;2022-10-31T04:28:19;13.18;;;5.45;;
35245;SDS011;21379;50.962;6.960;2022-10-31T04:30:46;24.08;;;4.53;;
35245;SDS011;21379;50.962;6.960;2022-10-31T04:33:13;19.27;;;5.15;;
35245;SDS011;21379;50.962;6.960;2022-10-31T04:35:41;12.02;;;5.55;;
35245;SDS011;21379;50.962;6.960;2022-10-31T04:38:08;12.68;;;4.63;;
35245;SDS011;21379;50.962;6.960;2022-10-31T04:40:35;9.98;;;5.13;;
35245;SDS011;21379;50.962;6.960;2022-10-31T04:43:01;14.40;;;5.03;;
35245;SDS011;21379;50.962;6.960;2022-10-31T04:45:28;13.18;;;4.85;;
35245;SDS011;21379;50.962;6.960;2022-10-31T04:47:55;11.68;;;4.63;;
35245;SDS011;21379;50.962;6.960;2022-10-31T04:50:22;15.25;;;5.13;;
35245;SDS011;21379;50.962;6.960;2022-10-31T04:52:50;15.68;;;4.97;;
35245;SDS011;21379;50.962;6.960;2022-10-31T04:55:17;16.38;;;6.03;;
35245;SDS011;21379;50.962;6.960;2022-10-31T04:57:44;15.88;;;3.97;;
35245;SDS011;21379;50.962;6.960;2022-10-31T05:00:13;12.57;;;4.53;;
35245;SDS011;21379;50.962;6.960;2022-10-31T05:02:42;9.45;;;4.65;;
35245;SDS011;21379;50.962;6.960;2022-10-31T05:05:09;16.83;;;5.07;;
35245;SDS011;21379;50.962;6.960;2022-10-31T05:07:38;10.93;;;4.75;;
35245;SDS011;21379;50.962;6.960;2022-10-31T05:10:08;11.27;;;4.70;;
35245;SDS011;21379;50.962;6.960;2022-10-31T05:12:35;16.08;;;5.05;;
35245;SDS011;21379;50.962;6.960;2022-10-31T05:15:03;9.25;;;4.35;;
35245;SDS011;21379;50.962;6.960;2022-10-31T05:17:31;10.43;;;5.10;;
35245;SDS011;21379;50.962;6.960;2022-10-31T05:19:58;19.83;;;4.82;;
35245;SDS011;21379;50.962;6.960;2022-10-31T05:22:24;9.57;;;4.82;;
35245;SDS011;21379;50.962;6.960;2022-10-31T05:24:51;12.45;;;4.55;;
35245;SDS011;21379;50.962;6.960;2022-10-31T05:27:19;10.40;;;4.60;;
35245;SDS011;21379;50.962;6.960;2022-10-31T05:29:46;13.95;;;5.22;;
35245;SDS011;21379;50.962;6.960;2022-10-31T05:32:13;12.95;;;5.10;;
35245;SDS011;21379;50.962;6.960;2022-10-31T05:34:40;12.05;;;4.65;;
35245;SDS011;21379;50.962;6.960;2022-10-31T05:37:07;16.45;;;5.00;;
35245;SDS011;21379;50.962;6.960;2022-10-31T05:39:34;17.27;;;5.20;;
35245;SDS011;21379;50.962;6.960;2022-10-31T05:42:01;9.88;;;5.00;;
35245;SDS011;21379;50.962;6.960;2022-10-31T05:44:29;18.13;;;4.60;;
35245;SDS011;21379;50.962;6.960;2022-10-31T05:46:56;9.88;;;4.72;;
35245;SDS011;21379;50.962;6.960;2022-10-31T05:49:23;12.18;;;5.60;;
35245;SDS011;21379;50.962;6.960;2022-10-31T05:51:50;14.23;;;5.15;;
35245;SDS011;21379;50.962;6.960;2022-10-31T05:54:16;9.80;;;4.45;;
35245;SDS011;21379;50.962;6.960;2022-10-31T05:56:43;17.13;;;4.63;;
35245;SDS011;21379;50.962;6.960;2022-10-31T05:59:10;12.23;;;5.30;;
35245;SDS011;21379;50.962;6.960;2022-10-31T06:01:38;13.45;;;5.07;;
35245;SDS011;21379;50.962;6.960;2022-10-31T06:04:05;13.18;;;4.63;;
35245;SDS011;21379;50.962;6.960;2022-10-31T06:06:32;11.35;;;5.00;;
35245;SDS011;21379;50.962;6.960;2022-10-31T06:08:58;13.85;;;5.20;;
35245;SDS011;21379;50.962;6.960;2022-10-31T06:11:25;11.07;;;4.70;;
35245;SDS011;21379;50.962;6.960;2022-10-31T06:13:52;15.20;;;4.25;;
35245;SDS011;21379;50.962;6.960;2022-10-31T06:16:19;13.73;;;4.20;;
35245;SDS011;21379;50.962;6.960;2022-10-31T06:18:47;16.38;;;4.93;;
35245;SDS011;21379;50.962;6.960;2022-10-31T06:21:14;12.90;;;4.82;;
35245;SDS011;21379;50.962;6.960;2022-10-31T06:23:41;14.38;;;4.68;;
35245;SDS011;21379;50.962;6.960;2022-10-31T06:26:07;11.85;;;5.55;;
35245;SDS011;21379;50.962;6.960;2022-10-31T06:28:34;11.27;;;4.63;;
35245;SDS011;21379;50.962;6.960;2022-10-31T06:31:01;13.38;;;4.97;;
35245;SDS011;21379;50.962;6.960;2022-10-31T06:33:28;9.00;;;4.57;;
35245;SDS011;21379;50.962;6.960;2022-10-31T06:35:56;12.50;;;4.88;;
35245;SDS011;21379;50.962;6.960;2022-10-31T06:38:23;11.02;;;4.82;;
35245;SDS011;21379;50.962;6.960;2022-10-31T06:40:51;10.38;;;5.45;;
35245;SDS011;21379;50.962;6.960;2022-10-31T06:43:18;15.95;;;5.10;;
35245;SDS011;21379;50.962;6.960;2022-10-31T06:45:45;12.00;;;5.55;;
35245;SDS011;21379;50.962;6.960;2022-10-31T06:48:12;10.07;;;4.70;;
35245;SDS011;21379;50.962;6.960;2022-10-31T06:50:39;12.05;;;4.60;;
35245;SDS011;21379;50.962;6.960;2022-10-31T06:53:08;13.38;;;5.10;;
35245;SDS011;21379;50.962;6.960;2022-10-31T06:55:35;9.02;;;4.45;;
35245;SDS011;21379;50.962;6.960;2022-10-31T06:58:02;8.98;;;4.93;;
35245;SDS011;21379;50.962;6.960;2022-10-31T07:00:29;9.10;;;4.97;;
35245;SDS011;21379;50.962;6.960;2022-10-31T07:02:58;9.20;;;4.47;;
35245;SDS011;21379;50.962;6.960;2022-10-31T07:05:26;11.77;;;4.38;;
35245;SDS011;21379;50.962;6.960;2022-10-31T07:07:54;11.23;;;5.60;;
35245;SDS011;21379;50.962;6.960;2022-10-31T07:10:23;15.40;;;4.97;;
35245;SDS011;21379;50.962;6.960;2022-10-31T07:12:53;9.43;;;4.47;;
35245;SDS011;21379;50.962;6.960;2022-10-31T07:15:21;14.00;;;4.68;;
35245;SDS011;21379;50.962;6.960;2022-10-31T07:17:47;14.95;;;5.32;;
35245;SDS011;21379;50.962;6.960;2022-10-31T07:20:14;11.95;;;5.70;;
35245;SDS011;21379;50.962;6.960;2022-10-31T07:22:41;12.68;;;5.05;;
35245;SDS011;21379;50.962;6.960;2022-10-31T07:25:08;9.95;;;4.57;;
35245;SDS011;21379;50.962;6.960;2022-10-31T07:27:37;9.85;;;4.55;;
35245;SDS011;21379;50.962;6.960;2022-10-31T07:30:04;10.50;;;4.68;;
35245;SDS011;21379;50.962;6.960;2022-10-31T07:32:38;9.80;;;4.32;;
35245;SDS011;21379;50.962;6.960;2022-10-31T07:35:06;9.85;;;4.82;;
35245;SDS011;21379;50.962;6.960;2022-10-31T07:37:33;10.77;;;4.65;;
35245;SDS011;21379;50.962;6.960;2022-10-31T07:40:00;13.45;;;4.32;;
35245;SDS011;21379;50.962;6.960;2022-10-31T07:42:28;9.43;;;4.78;;
35245;SDS011;21379;50.962;6.960;2022-10-31T07:44:56;17.52;;;5.53;;
35245;SDS011;21379;50.962;6.960;2022-10-31T07:47:22;8.85;;;4.22;;
35245;SDS011;21379;50.962;6.960;2022-10-31T07:49:49;8.15;;;4.15;;
35245;SDS011;21379;50.962;6.960;2022-10-31T07:52:16;12.10;;;4.75;;
35245;SDS011;21379;50.962;6.960;2022-10-31T07:54:43;9.10;;;5.60;;
35245;SDS011;21379;50.962;6.960;2022-10-31T07:57:10;10.82;;;4.70;;
35245;SDS011;21379;50.962;6.960;2022-10-31T07:59:37;8.82;;;4.35;;
35245;SDS011;21379;50.962;6.960;2022-10-31T08:02:05;13.73;;;5.10;;
35245;SDS011;21379;50.962;6.960;2022-10-31T08:04:33;14.32;;;5.93;;
35245;SDS011;21379;50.962;6.960;2022-10-31T08:07:00;13.68;;;4.85;;
35245;SDS011;21379;50.962;6.960;2022-10-31T08:09:27;10.25;;;5.25;;
35245;SDS011;21379;50.962;6.960;2022-10-31T08:11:53;18.02;;;5.93;;
35245;SDS011;21379;50.962;6.960;2022-10-31T08:14:20;10.10;;;4.28;;
35245;SDS011;21379;50.962;6.960;2022-10-31T08:16:47;14.60;;;6.68;;
35245;SDS011;21379;50.962;6.960;2022-10-31T08:19:15;12.60;;;4.80;;
35245;SDS011;21379;50.962;6.960;2022-10-31T08:21:42;15.65;;;5.13;;
35245;SDS011;21379;50.962;6.960;2022-10-31T08:24:09;9.88;;;4.68;;
35245;SDS011;21379;50.962;6.960;2022-10-31T08:26:36;14.85;;;4.70;;
35245;SDS011;21379;50.962;6.960;2022-10-31T08:29:03;9.18;;;4.38;;
35245;SDS011;21379;50.962;6.960;2022-10-31T08:31:30;9.32;;;5.30;;
35245;SDS011;21379;50.962;6.960;2022-10-31T08:33:57;8.73;;;4.45;;
35245;SDS011;21379;50.962;6.960;2022-10-31T08:36:26;14.80;;;4.82;;
35245;SDS011;21379;50.962;6.960;2022-10-31T08:38:54;10.90;;;4.82;;
35245;SDS011;21379;50.962;6.960;2022-10-31T08:41:21;7.00;;;4.03;;
35245;SDS011;21379;50.962;6.960;2022-10-31T08:43:48;11.65;;;5.03;;
35245;SDS011;21379;50.962;6.960;2022-10-31T08:46:15;13.63;;;4.13;;
35245;SDS011;21379;50.962;6.960;2022-10-31T08:48:42;12.77;;;4.88;;
35245;SDS011;21379;50.962;6.960;2022-10-31T08:51:09;9.13;;;4.85;;
35245;SDS011;21379;50.962;6.960;2022-10-31T08:53:38;17.17;;;5.13;;
35245;SDS011;21379;50.962;6.960;2022-10-31T08:56:05;8.93;;;4.43;;
35245;SDS011;21379;50.962;6.960;2022-10-31T08:58:32;17.30;;;4.50;;
35245;SDS011;21379;50.962;6.960;2022-10-31T09:00:59;9.93;;;4.72;;
35245;SDS011;21379;50.962;6.960;2022-10-31T09:03:27;9.45;;;4.32;;
35245;SDS011;21379;50.962;6.960;2022-10-31T09:05:57;19.23;;;4.38;;
35245;SDS011;21379;50.962;6.960;2022-10-31T09:08:25;10.88;;;4.72;;
35245;SDS011;21379;50.962;6.960;2022-10-31T09:10:55;9.13;;;4.63;;
35245;SDS011;21379;50.962;6.960;2022-10-31T09:13:23;13.80;;;5.07;;
35245;SDS011;21379;50.962;6.960;2022-10-31T09:15:50;7.97;;;4.28;;
35245;SDS011;21379;50.962;6.960;2022-10-31T09:18:18;10.23;;;3.90;;
35245;SDS011;21379;50.962;6.960;2022-10-31T09:20:46;13.68;;;4.47;;
35245;SDS011;21379;50.962;6.960;2022-10-31T09:23:15;6.72;;;4.00;;
35245;SDS011;21379;50.962;6.960;2022-10-31T09:25:43;15.45;;;4.82;;
35245;SDS011;21379;50.962;6.960;2022-10-31T09:28:12;12.10;;;4.63;;
35245;SDS011;21379;50.962;6.960;2022-10-31T09:30:41;10.95;;;4.88;;
35245;SDS011;21379;50.962;6.960;2022-10-31T09:33:09;13.48;;;5.50;;
35245;SDS011;21379;50.962;6.960;2022-10-31T09:35:38;6.60;;;4.13;;
35245;SDS011;21379;50.962;6.960;2022-10-31T09:38:07;12.00;;;4.10;;
35245;SDS011;21379;50.962;6.960;2022-10-31T09:40:36;9.68;;;4.97;;
35245;SDS011;21379;50.962;6.960;2022-10-31T09:43:08;9.68;;;4.78;;
35245;SDS011;21379;50.962;6.960;2022-10-31T09:45:43;10.65;;;5.05;;
35245;SDS011;21379;50.962;6.960;2022-10-31T09:48:21;8.30;;;4.60;;
35245;SDS011;21379;50.962;6.960;2022-10-31T09:50:57;12.32;;;4.63;;
35245;SDS011;21379;50.962;6.960;2022-10-31T09:53:27;8.43;;;4.60;;
35245;SDS011;21379;50.962;6.960;2022-10-31T09:56:01;7.23;;;4.27;;
35245;SDS011;21379;50.962;6.960;2022-10-31T09:58:32;9.27;;;4.32;;
35245;SDS011;21379;50.962;6.960;2022-10-31T10:01:05;10.95;;;5.25;;
35245;SDS011;21379;50.962;6.960;2022-10-31T10:03:33;9.95;;;4.20;;
35245;SDS011;21379;50.962;6.960;2022-10-31T10:06:07;10.63;;;4.28;;
35245;SDS011;21379;50.962;6.960;2022-10-31T10:08:39;9.00;;;4.15;;
35245;SDS011;21379;50.962;6.960;2022-10-31T10:11:12;9.68;;;4.60;;
35245;SDS011;21379;50.962;6.960;2022-10-31T10:14:01;15.15;;;5.22;;
35245;SDS011;21379;50.962;6.960;2022-10-31T10:19:32;11.55;;;3.97;;
35245;SDS011;21379;50.962;6.960;2022-10-31T10:22:09;12.07;;;5.40;;
35245;SDS011;21379;50.962;6.960;2022-10-31T10:24:49;13.65;;;4.53;;
35245;SDS011;21379;50.962;6.960;2022-10-31T10:27:26;6.93;;;3.67;;
35245;SDS011;21379;50.962;6.960;2022-10-31T10:30:02;9.73;;;3.75;;
35245;SDS011;21379;50.962;6.960;2022-10-31T10:32:38;13.95;;;3.58;;
35245;SDS011;21379;50.962;6.960;2022-10-31T10:35:11;5.60;;;3.28;;
35245;SDS011;21379;50.962;6.960;2022-10-31T10:37:49;8.70;;;3.33;;
35245;SDS011;21379;50.962;6.960;2022-10-31T10:40:19;8.18;;;3.50;;
35245;SDS011;21379;50.962;6.960;2022-10-31T10:42:52;8.75;;;3.58;;
35245;SDS011;21379;50.962;6.960;2022-10-31T10:45:44;6.43;;;3.55;;
35245;SDS011;21379;50.962;6.960;2022-10-31T10:48:35;6.65;;;3.42;;
35245;SDS011;21379;50.962;6.960;2022-10-31T10:51:15;9.95;;;3.70;;
35245;SDS011;21379;50.962;6.960;2022-10-31T10:53:51;9.57;;;3.67;;
35245;SDS011;21379;50.962;6.960;2022-10-31T10:56:39;8.18;;;3.78;;
35245;SDS011;21379;50.962;6.960;2022-10-31T10:59:13;7.07;;;2.92;;
35245;SDS011;21379;50.962;6.960;2022-10-31T11:01:43;9.10;;;3.00;;
35245;SDS011;21379;50.962;6.960;2022-10-31T11:04:23;8.30;;;2.92;;
35245;SDS011;21379;50.962;6.960;2022-10-31T11:07:01;5.68;;;3.00;;
35245;SDS011;21379;50.962;6.960;2022-10-31T11:09:29;8.43;;;3.10;;
35245;SDS011;21379;50.962;6.960;2022-10-31T11:11:56;11.95;;;3.40;;
35245;SDS011;21379;50.962;6.960;2022-10-31T11:14:24;8.27;;;3.05;;
35245;SDS011;21379;50.962;6.960;2022-10-31T11:16:55;5.25;;;2.80;;
35245;SDS011;21379;50.962;6.960;2022-10-31T11:19:35;4.88;;;2.78;;
35245;SDS011;21379;50.962;6.960;2022-10-31T11:22:06;10.85;;;3.25;;
35245;SDS011;21379;50.962;6.960;2022-10-31T11:24:36;13.02;;;3.28;;
35245;SDS011;21379;50.962;6.960;2022-10-31T11:27:11;8.95;;;3.40;;
35245;SDS011;21379;50.962;6.960;2022-10-31T11:29:40;10.80;;;3.55;;
35245;SDS011;21379;50.962;6.960;2022-10-31T11:32:14;9.85;;;3.10;;
35245;SDS011;21379;50.962;6.960;2022-10-31T11:34:45;10.88;;;3.35;;
35245;SDS011;21379;50.962;6.960;2022-10-31T11:37:16;11.73;;;3.35;;
35245;SDS011;21379;50.962;6.960;2022-10-31T11:39:46;9.57;;;3.33;;
35245;SDS011;21379;50.962;6.960;2022-10-31T11:42:18;5.38;;;2.63;;
35245;SDS011;21379;50.962;6.960;2022-10-31T11:44:47;8.57;;;3.67;;
35245;SDS011;21379;50.962;6.960;2022-10-31T11:47:17;6.55;;;3.83;;
35245;SDS011;21379;50.962;6.960;2022-10-31T11:49:48;11.63;;;2.65;;
35245;SDS011;21379;50.962;6.960;2022-10-31T11:52:16;12.93;;;3.47;;
35245;SDS011;21379;50.962;6.960;2022-10-31T11:54:46;8.00;;;3.25;;
35245;SDS011;21379;50.962;6.960;2022-10-31T11:57:25;9.35;;;3.53;;
35245;SDS011;21379;50.962;6.960;2022-10-31T11:59:55;10.38;;;3.30;;
35245;SDS011;21379;50.962;6.960;2022-10-31T12:02:24;13.82;;;3.65;;
35245;SDS011;21379;50.962;6.960;2022-10-31T12:05:02;6.88;;;2.92;;
35245;SDS011;21379;50.962;6.960;2022-10-31T12:07:34;8.05;;;3.42;;
35245;SDS011;21379;50.962;6.960;2022-10-31T12:10:14;10.75;;;3.50;;
35245;SDS011;21379;50.962;6.960;2022-10-31T12:12:54;6.95;;;2.78;;
35245;SDS011;21379;50.962;6.960;2022-10-31T12:15:30;9.93;;;3.20;;
35245;SDS011;21379;50.962;6.960;2022-10-31T12:18:05;9.30;;;3.20;;
35245;SDS011;21379;50.962;6.960;2022-10-31T12:20:59;7.95;;;2.67;;
35245;SDS011;21379;50.962;6.960;2022-10-31T12:23:44;7.53;;;2.25;;
35245;SDS011;21379;50.962;6.960;2022-10-31T12:26:17;7.40;;;2.67;;
35245;SDS011;21379;50.962;6.960;2022-10-31T12:28:55;7.22;;;2.80;;
35245;SDS011;21379;50.962;6.960;2022-10-31T12:31:33;6.47;;;3.17;;
35245;SDS011;21379;50.962;6.960;2022-10-31T12:34:27;8.23;;;2.40;;
35245;SDS011;21379;50.962;6.960;2022-10-31T12:37:07;3.47;;;1.85;;
35245;SDS011;21379;50.962;6.960;2022-10-31T12:39:42;14.30;;;2.67;;
35245;SDS011;21379;50.962;6.960;2022-10-31T12:42:19;8.02;;;2.50;;
35245;SDS011;21379;50.962;6.960;2022-10-31T12:45:07;6.68;;;2.53;;
35245;SDS011;21379;50.962;6.960;2022-10-31T12:47:54;7.22;;;2.83;;
35245;SDS011;21379;50.962;6.960;2022-10-31T12:50:42;6.90;;;2.28;;
35245;SDS011;21379;50.962;6.960;2022-10-31T12:53:33;11.25;;;2.65;;
35245;SDS011;21379;50.962;6.960;2022-10-31T12:56:16;5.90;;;2.22;;
35245;SDS011;21379;50.962;6.960;2022-10-31T12:58:55;6.35;;;2.60;;
35245;SDS011;21379;50.962;6.960;2022-10-31T13:01:28;4.72;;;1.95;;
35245;SDS011;21379;50.962;6.960;2022-10-31T13:04:01;7.88;;;3.05;;
35245;SDS011;21379;50.962;6.960;2022-10-31T13:06:34;12.90;;;2.53;;
35245;SDS011;21379;50.962;6.960;2022-10-31T13:09:05;7.00;;;3.20;;
35245;SDS011;21379;50.962;6.960;2022-10-31T13:11:35;5.30;;;2.80;;
35245;SDS011;21379;50.962;6.960;2022-10-31T13:14:07;7.28;;;2.83;;
35245;SDS011;21379;50.962;6.960;2022-10-31T13:16:41;5.33;;;2.53;;
35245;SDS011;21379;50.962;6.960;2022-10-31T13:19:16;12.32;;;2.53;;
35245;SDS011;21379;50.962;6.960;2022-10-31T13:21:48;5.70;;;2.58;;
35245;SDS011;21379;50.962;6.960;2022-10-31T13:24:25;7.03;;;2.72;;
35245;SDS011;21379;50.962;6.960;2022-10-31T13:26:57;8.23;;;3.13;;
35245;SDS011;21379;50.962;6.960;2022-10-31T13:29:28;8.18;;;2.08;;
35245;SDS011;21379;50.962;6.960;2022-10-31T13:31:58;4.68;;;2.28;;
35245;SDS011;21379;50.962;6.960;2022-10-31T13:34:27;6.40;;;2.47;;
35245;SDS011;21379;50.962;6.960;2022-10-31T13:37:01;8.50;;;2.22;;
35245;SDS011;21379;50.962;6.960;2022-10-31T13:39:41;6.32;;;2.60;;
35245;SDS011;21379;50.962;6.960;2022-10-31T13:42:23;12.68;;;4.25;;
35245;SDS011;21379;50.962;6.960;2022-10-31T13:45:07;6.65;;;2.42;;
35245;SDS011;21379;50.962;6.960;2022-10-31T13:47:38;3.13;;;2.22;;
35245;SDS011;21379;50.962;6.960;2022-10-31T13:50:18;10.10;;;2.05;;
35245;SDS011;21379;50.962;6.960;2022-10-31T13:52:47;6.85;;;3.17;;
35245;SDS011;21379;50.962;6.960;2022-10-31T13:58:04;8.85;;;3.03;;
35245;SDS011;21379;50.962;6.960;2022-10-31T14:00:44;10.23;;;2.40;;
35245;SDS011;21379;50.962;6.960;2022-10-31T14:03:17;9.48;;;2.97;;
35245;SDS011;21379;50.962;6.960;2022-10-31T14:05:51;6.40;;;2.42;;
35245;SDS011;21379;50.962;6.960;2022-10-31T14:08:21;5.53;;;2.43;;
35245;SDS011;21379;50.962;6.960;2022-10-31T14:10:50;5.90;;;2.22;;
35245;SDS011;21379;50.962;6.960;2022-10-31T14:13:20;5.72;;;2.60;;
35245;SDS011;21379;50.962;6.960;2022-10-31T14:15:53;6.07;;;2.58;;
35245;SDS011;21379;50.962;6.960;2022-10-31T14:18:22;6.93;;;2.50;;
35245;SDS011;21379;50.962;6.960;2022-10-31T14:20:51;5.90;;;3.15;;
35245;SDS011;21379;50.962;6.960;2022-10-31T14:23:36;9.52;;;2.95;;
35245;SDS011;21379;50.962;6.960;2022-10-31T14:26:06;10.32;;;3.85;;
35245;SDS011;21379;50.962;6.960;2022-10-31T14:28:47;11.75;;;3.22;;
35245;SDS011;21379;50.962;6.960;2022-10-31T14:31:27;13.30;;;3.47;;
35245;SDS011;21379;50.962;6.960;2022-10-31T14:34:02;9.63;;;3.05;;
35245;SDS011;21379;50.962;6.960;2022-10-31T14:36:45;4.47;;;2.17;;
35245;SDS011;21379;50.962;6.960;2022-10-31T14:39:24;9.95;;;2.20;;
35245;SDS011;21379;50.962;6.960;2022-10-31T14:41:59;4.68;;;2.30;;
35245;SDS011;21379;50.962;6.960;2022-10-31T14:47:36;4.00;;;1.90;;
35245;SDS011;21379;50.962;6.960;2022-10-31T14:50:17;6.43;;;2.50;;
35245;SDS011;21379;50.962;6.960;2022-10-31T14:52:49;5.20;;;2.20;;
35245;SDS011;21379;50.962;6.960;2022-10-31T14:55:20;6.13;;;2.05;;
35245;SDS011;21379;50.962;6.960;2022-10-31T14:57:49;4.55;;;2.50;;
35245;SDS011;21379;50.962;6.960;2022-10-31T15:00:20;13.13;;;3.33;;
35245;SDS011;21379;50.962;6.960;2022-10-31T15:02:50;10.57;;;2.33;;
35245;SDS011;21379;50.962;6.960;2022-10-31T15:05:24;17.65;;;2.85;;
35245;SDS011;21379;50.962;6.960;2022-10-31T15:07:53;11.75;;;2.55;;
35245;SDS011;21379;50.962;6.960;2022-10-31T15:10:23;6.75;;;2.40;;
35245;SDS011;21379;50.962;6.960;2022-10-31T15:12:51;5.85;;;2.35;;